KSAF/SAF METAR and TAF weather

Enter ICAO airport designator
Station Type Date Time Source
KSAF METAR 2022/01/27 22:53 UTC NOAA

KSAF 272253Z 18006KT 10SM CLR 04/M09 A3015 RMK AO2 SLP217 T00441089


Station Type Date Time Source
KSAF Decoded METAR 2022/01/27 22:53 UTC NOAA

SANTA FE COUNTY MUNICIPAL, NM, United States (KSAF) 35-37N 106-05W 1930M
Jan 27, 2022 - 05:53 PM EST / 2022.01.27 2253 UTC
Wind: from the S (180 degrees) at 7 MPH (6 KT):0
Visibility: 10 mile(s):0
Sky conditions: clear
Temperature: 39.9 F (4.4 C)
Dew Point: 16.0 F (-8.9 C)
Relative Humidity: 37%
Pressure (altimeter): 30.15 in. Hg (1020 hPa)
ob: KSAF 272253Z 18006KT 10SM CLR 04/M09 A3015 RMK AO2 SLP217 T00441089
cycle: 23

Station Type Date Time Source
KSAF TAF 2022/01/27 18:42 UTC NOAA

TAF KSAF 271740Z 2718/2818 VRB05KT P6SM FEW250
FM271900 23008KT P6SM SCT200
FM272300 13009KT P6SM FEW050 SCT120
FM280200 11014G22KT P6SM VCSH SCT040 BKN100
TEMPO 2803/2806 4SM -SN BKN035
FM280600 03007KT P6SM SCT040 BKN080
FM281200 36011KT P6SM SCT100

Example: see airport list